Time;durP1;ratioP1;P1;durP2;ratioP2;P2;SDS_P1;SDS_P2;PMS_P1;PMS_P2;Temp;Humidity;BMP_temperature;BMP_pressure;BME280_temperature;BME280_humidity;BME280_pressure;Samples;Min_cycle;Max_cycle;Signal;HPM_P1;HPM_P2
2021/05/06 00:33:13;;;;;;;4.65;2.42;;;;;;;25.12;40.91;94448.69;4989863;28;20512;-72
2021/05/06 00:35:39;;;;;;;3.78;2.17;;;;;;;25.11;40.82;94447.25;4990017;28;20022;-72
2021/05/06 01:12:36;;;;;;;4.47;2.03;;;;;;;25.05;40.94;94482.16;4988962;28;20033;-72
2021/05/06 01:15:03;;;;;;;3.83;2.33;;;;;;;25.03;41.27;94479.22;4988945;28;20034;-72
2021/05/06 01:17:28;;;;;;;3.00;1.90;;;;;;;25.05;40.69;94487.63;4989119;28;20122;-72
2021/05/06 01:19:54;;;;;;;2.95;1.67;;;;;;;25.06;40.85;94489.06;4988582;28;20018;-72
2021/05/06 01:22:19;;;;;;;2.30;1.52;;;;;;;25.03;40.92;94479.22;4987550;28;20030;-73
2021/05/06 01:24:50;;;;;;;3.35;1.83;;;;;;;25.02;40.80;94485.97;4988557;28;20018;-72
2021/05/06 01:27:20;;;;;;;3.65;2.00;;;;;;;25.03;41.41;94494.88;4988790;28;20498;-72
2021/05/06 01:29:52;;;;;;;2.63;1.63;;;;;;;25.00;41.46;94480.28;4988791;28;20022;-73
2021/05/06 01:32:32;;;;;;;2.88;1.67;;;;;;;25.01;41.03;94487.22;4988507;28;20044;-72
2021/05/06 01:35:02;;;;;;;3.58;1.77;;;;;;;25.00;41.55;94485.75;4988795;28;20088;-72
2021/05/06 01:42:23;;;;;;;3.50;1.70;;;;;;;24.98;40.83;94493.72;4988021;28;20065;-73
2021/05/06 02:00:58;;;;;;;2.78;1.77;;;;;;;24.96;41.29;94504.44;4988064;28;20034;-72
2021/05/06 02:03:23;;;;;;;2.20;1.77;;;;;;;24.96;41.08;94517.34;4987845;28;20901;-72
2021/05/06 02:05:49;;;;;;;3.40;1.92;;;;;;;24.95;41.27;94516.63;4988348;28;20027;-72
2021/05/06 02:08:14;;;;;;;3.83;1.80;;;;;;;24.93;41.48;94519.16;4988066;28;20032;-72
2021/05/06 02:10:40;;;;;;;3.65;2.00;;;;;;;24.92;40.93;94512.22;4988102;28;20042;-72
2021/05/06 02:13:05;;;;;;;3.00;1.98;;;;;;;24.91;40.75;94516.22;4987717;28;20030;-72
2021/05/06 02:15:36;;;;;;;2.50;1.67;;;;;;;24.93;41.32;94530.09;4988111;28;20019;-72
2021/05/06 02:18:02;;;;;;;2.40;1.65;;;;;;;24.95;41.46;94526.84;4988487;28;20026;-72
2021/05/06 02:20:27;;;;;;;2.92;1.40;;;;;;;24.93;41.29;94513.72;4988086;28;20041;-72
2021/05/06 02:22:53;;;;;;;2.67;1.67;;;;;;;24.94;41.37;94526.09;4987851;28;20034;-72
2021/05/06 02:25:19;;;;;;;3.33;1.88;;;;;;;24.92;40.85;94528.63;4986662;28;20030;-72
2021/05/06 02:27:44;;;;;;;2.50;1.60;;;;;;;24.94;41.04;94522.63;4987644;28;20040;-72
2021/05/06 02:30:10;;;;;;;2.85;1.73;;;;;;;24.89;41.04;94529.69;4987903;28;20027;-72
2021/05/06 02:32:36;;;;;;;2.83;1.50;;;;;;;24.91;40.90;94527.16;4987413;28;20520;-72
2021/05/06 02:35:02;;;;;;;2.85;1.42;;;;;;;24.92;41.38;94534.09;4987908;28;20022;-73
2021/05/06 02:37:27;;;;;;;2.53;1.40;;;;;;;24.90;41.02;94531.16;4987878;28;20026;-72
2021/05/06 02:39:53;;;;;;;2.88;1.40;;;;;;;24.90;41.22;94525.69;4987943;28;20049;-72
2021/05/06 02:42:19;;;;;;;2.45;1.50;;;;;;;24.89;40.95;94535.16;4986054;28;20140;-72
2021/05/06 02:44:44;;;;;;;2.60;1.48;;;;;;;24.88;40.93;94533.66;4987783;28;20057;-72
2021/05/06 02:47:10;;;;;;;2.17;1.70;;;;;;;24.90;41.27;94536.63;4987979;28;20033;-72
2021/05/06 02:49:36;;;;;;;1.92;1.20;;;;;;;24.88;41.29;94533.66;4987544;28;20039;-72
2021/05/06 02:52:09;;;;;;;2.08;1.30;;;;;;;24.90;41.24;94535.88;4987568;28;20049;-72
2021/05/06 02:54:39;;;;;;;3.50;1.60;;;;;;;24.89;41.28;94540.59;4987770;28;20073;-72
2021/05/06 03:02:48;;;;;;;2.85;1.35;;;;;;;24.87;41.22;94543.16;4967802;28;20494;-72
2021/05/06 03:05:14;;;;;;;2.50;1.50;;;;;;;24.85;41.37;94545.66;4979367;28;20034;-72
2021/05/06 03:07:42;;;;;;;2.30;1.20;;;;;;;24.85;40.65;94555.84;4987921;28;20418;-72
2021/05/06 03:10:31;;;;;;;2.25;1.40;;;;;;;24.86;41.00;94552.59;4987963;28;20045;-72
2021/05/06 03:23:39;;;;;;;1.60;1.00;;;;;;;24.84;40.73;94568.78;4989204;28;20501;-72
2021/05/06 03:26:04;;;;;;;1.95;1.00;;;;;;;24.84;41.12;94571.50;4990709;28;20034;-72
2021/05/06 03:28:38;;;;;;;1.88;1.20;;;;;;;24.83;40.98;94564.56;4980265;28;20031;-72
2021/05/06 03:41:53;;;;;;;2.03;1.10;;;;;;;24.82;40.75;94584.94;5002171;28;20121;-72
2021/05/06 04:15:04;;;;;;;2.45;1.08;;;;;;;25.12;40.63;94634.50;4979313;28;20073;-75
2021/05/06 04:27:13;;;;;;;2.65;1.50;;;;;;;25.68;39.60;94651.16;4969658;28;20089;-78
2021/05/06 04:37:46;;;;;;;4.70;1.20;;;;;;;26.14;38.22;94659.94;4973115;28;20511;-76
2021/05/06 05:06:21;;;;;;;2.58;1.33;;;;;;;27.17;35.76;94686.56;4991514;28;20050;-75
2021/05/06 05:08:55;;;;;;;2.33;1.25;;;;;;;27.25;35.92;94687.34;4982656;28;20130;-76
2021/05/06 05:19:35;;;;;;;3.33;1.10;;;;;;;27.43;35.55;94692.53;4975738;28;20068;-72
2021/05/06 05:24:48;;;;;;;3.30;1.10;;;;;;;27.57;35.05;94701.41;4972051;28;20090;-77
2021/05/06 05:27:14;;;;;;;3.85;1.58;;;;;;;27.25;33.29;94703.81;4969372;28;20507;-77
2021/05/06 05:29:39;;;;;;;5.60;1.10;;;;;;;27.07;32.76;94715.78;4973699;28;20055;-76
2021/05/06 05:32:04;;;;;;;2.22;1.13;;;;;;;27.02;32.26;94716.66;4924524;28;20030;-76
2021/05/06 05:36:57;;;;;;;2.70;1.23;;;;;;;27.09;34.28;94718.00;4974935;28;20023;-74
2021/05/06 05:54:50;;;;;;;1.98;1.00;;;;;;;26.97;30.74;94712.06;4975151;28;20607;-72
2021/05/06 05:57:15;;;;;;;4.35;1.50;;;;;;;27.04;30.57;94732.56;4972271;28;20046;-73
2021/05/06 05:59:41;;;;;;;1.80;0.90;;;;;;;27.14;31.30;94739.75;4980372;28;20535;-71
2021/05/06 06:02:06;;;;;;;3.80;1.05;;;;;;;27.12;30.53;94745.03;5002491;28;20037;-71
2021/05/06 06:04:32;;;;;;;3.03;0.80;;;;;;;27.11;30.21;94743.56;4981666;28;20109;-71
2021/05/06 06:06:57;;;;;;;3.70;0.98;;;;;;;27.15;29.94;94749.44;4987733;28;20105;-71
2021/05/06 06:09:23;;;;;;;3.25;1.10;;;;;;;26.79;30.30;94704.81;4979555;28;20097;-71
2021/05/06 06:11:48;;;;;;;5.68;1.13;;;;;;;27.05;30.40;94745.72;4979383;28;20038;-71
2021/05/06 06:14:18;;;;;;;4.38;1.25;;;;;;;27.04;30.42;94755.25;4981028;28;20022;-71
2021/05/06 06:16:43;;;;;;;;;;;;;;;27.03;30.69;94759.25;4978893;28;20034;-71
2021/05/06 06:19:09;;;;;;;2.22;1.00;;;;;;;27.17;30.20;94757.84;4980711;28;19910;-75
2021/05/06 06:22:01;;;;;;;3.90;1.00;;;;;;;27.11;30.05;94748.31;4993066;28;20026;-77
2021/05/06 06:24:20;;;;;;;2.55;1.05;;;;;;;27.07;30.65;94770.63;4982100;28;20045;-73
2021/05/06 06:26:46;;;;;;;3.58;1.02;;;;;;;27.11;30.64;94776.47;4993330;28;20429;-76
2021/05/06 06:29:15;;;;;;;3.03;1.23;;;;;;;26.95;30.02;94785.88;4990584;28;20545;-78
2021/05/06 06:31:44;;;;;;;4.23;1.00;;;;;;;26.87;30.59;94779.56;4993215;28;20050;-75
2021/05/06 06:34:09;;;;;;;4.60;1.30;;;;;;;26.77;30.92;94781.34;4992737;28;20034;-71
2021/05/06 06:36:35;;;;;;;4.05;1.00;;;;;;;26.60;31.03;94771.34;4993531;28;20414;-79
2021/05/06 06:39:01;;;;;;;5.80;2.10;;;;;;;26.46;31.22;94786.38;4989376;28;20045;-75
2021/05/06 06:41:26;;;;;;;2.50;1.20;;;;;;;26.37;31.18;94787.59;4986744;28;20110;-72
2021/05/06 06:43:53;;;;;;;2.88;0.88;;;;;;;26.36;30.81;94785.38;4975784;28;20470;-71
2021/05/06 06:46:19;;;;;;;4.43;0.90;;;;;;;26.27;31.22;94777.59;4982905;28;20117;-75
2021/05/06 06:48:45;;;;;;;2.50;0.90;;;;;;;26.24;31.15;94784.13;4980070;28;20035;-72
2021/05/06 06:51:10;;;;;;;2.75;1.08;;;;;;;26.19;30.61;94781.53;4973436;28;20041;-73
2021/05/06 06:53:36;;;;;;;3.22;0.90;;;;;;;26.02;30.88;94779.19;4982319;28;20041;-75
2021/05/06 06:56:01;;;;;;;2.05;1.10;;;;;;;26.09;30.44;94791.47;5002049;28;20025;-69
2021/05/06 06:58:27;;;;;;;3.78;1.10;;;;;;;25.79;31.13;94793.16;4989754;28;20045;-69
2021/05/06 07:00:52;;;;;;;2.67;1.00;;;;;;;25.43;31.11;94745.66;4998080;28;20751;-69
2021/05/06 07:03:18;;;;;;;3.88;0.93;;;;;;;25.63;31.78;94786.00;4991339;28;20054;-69
2021/05/06 07:05:43;;;;;;;3.88;1.40;;;;;;;25.53;31.64;94765.81;4999533;28;20038;-70
2021/05/06 07:08:21;;;;;;;2.33;1.10;;;;;;;25.65;31.90;94794.44;4987106;28;20092;-70
2021/05/06 07:10:48;;;;;;;2.25;1.10;;;;;;;25.69;31.97;94789.38;4978036;28;20050;-75
2021/05/06 07:13:14;;;;;;;4.10;1.40;;;;;;;25.79;31.39;94794.63;4988511;28;20125;-75
2021/05/06 07:15:39;;;;;;;3.70;1.05;;;;;;;25.77;31.57;94801.16;4991194;28;20100;-72
2021/05/06 07:18:08;;;;;;;3.22;1.30;;;;;;;25.69;31.71;94805.81;4988938;28;20027;-74
2021/05/06 07:20:33;;;;;;;4.57;1.52;;;;;;;25.76;32.17;94794.22;4992817;28;20558;-82
2021/05/06 07:22:59;;;;;;;2.55;1.20;;;;;;;25.91;31.45;94800.59;4989883;28;20034;-77
2021/05/06 07:25:24;;;;;;;3.75;1.10;;;;;;;25.83;31.64;94800.50;4990974;28;20029;-77
2021/05/06 07:27:50;;;;;;;4.38;1.58;;;;;;;25.89;31.64;94808.59;4992308;28;20116;-78
2021/05/06 07:30:16;;;;;;;3.72;1.58;;;;;;;25.82;31.66;94799.03;4992445;28;20030;-80
2021/05/06 07:32:42;;;;;;;7.03;2.15;;;;;;;25.70;32.49;94779.94;4984742;28;20491;-82
2021/05/06 07:35:07;;;;;;;3.78;1.70;;;;;;;25.88;31.77;94802.38;4975607;28;20027;-77
2021/05/06 07:37:33;;;;;;;2.95;1.90;;;;;;;26.00;32.20;94814.56;4976405;28;20517;-80
2021/05/06 07:39:58;;;;;;;4.22;1.80;;;;;;;25.88;32.57;94802.38;4995664;28;20060;-78
2021/05/06 07:42:24;;;;;;;2.92;1.50;;;;;;;25.84;32.20;94807.47;4996482;28;20038;-79
2021/05/06 07:44:49;;;;;;;4.53;1.73;;;;;;;25.92;31.79;94797.31;4995840;28;20026;-79
2021/05/06 07:47:15;;;;;;;4.43;1.50;;;;;;;25.92;31.92;94802.06;5001160;28;20041;-79
2021/05/06 07:49:40;;;;;;;2.65;1.30;;;;;;;25.79;32.20;94800.09;4991945;28;20037;-75
2021/05/06 07:52:07;;;;;;;4.03;1.30;;;;;;;25.77;32.73;94795.66;4998519;28;20716;-76
2021/05/06 07:54:33;;;;;;;3.63;1.17;;;;;;;25.76;32.99;94784.00;4995002;28;20068;-77
2021/05/06 07:56:58;;;;;;;3.72;1.23;;;;;;;25.65;33.20;94789.72;4997005;28;20023;-77
2021/05/06 07:59:24;;;;;;;4.47;1.33;;;;;;;25.83;32.47;94778.63;4987991;28;20038;-75
2021/05/06 08:01:50;;;;;;;6.55;1.67;;;;;;;25.57;33.28;94777.19;4993870;28;20109;-74
2021/05/06 08:04:16;;;;;;;4.82;1.30;;;;;;;25.63;33.08;94786.00;4980907;28;20051;-75
2021/05/06 08:06:41;;;;;;;3.80;1.35;;;;;;;25.55;32.60;94790.66;4985995;28;20045;-76
2021/05/06 08:09:07;;;;;;;3.97;1.30;;;;;;;25.55;33.30;94790.66;4983515;28;20498;-76
2021/05/06 08:11:32;;;;;;;4.93;1.30;;;;;;;25.53;33.06;94787.69;4982068;28;20053;-76
2021/05/06 08:13:58;;;;;;;3.42;1.25;;;;;;;25.55;32.45;94790.66;4986938;28;20104;-77
2021/05/06 08:16:23;;;;;;;4.68;1.15;;;;;;;25.67;33.02;94791.94;4989983;28;20037;-78
2021/05/06 08:18:48;;;;;;;2.45;1.23;;;;;;;25.80;32.40;94801.56;4987071;28;20018;-78
2021/05/06 08:21:14;;;;;;;3.97;1.20;;;;;;;25.72;32.21;94788.34;4980963;28;20030;-78
2021/05/06 08:23:40;;;;;;;3.67;1.45;;;;;;;25.77;32.15;94792.94;4985401;28;20037;-80
2021/05/06 08:26:06;;;;;;;3.65;1.35;;;;;;;25.86;32.67;94791.25;4979354;28;20018;-78
2021/05/06 08:28:31;;;;;;;3.03;1.40;;;;;;;25.59;33.13;94753.53;4983231;28;20031;-82
2021/05/06 08:30:57;;;;;;;3.15;1.48;;;;;;;26.01;32.33;94794.13;4977132;28;20438;-79
2021/05/06 08:33:22;;;;;;;2.53;1.25;;;;;;;25.99;32.14;94796.69;4973510;28;20046;-82
2021/05/06 08:35:48;;;;;;;3.28;1.20;;;;;;;26.04;32.20;94790.34;4975700;28;20019;-78
2021/05/06 08:38:13;;;;;;;3.28;1.20;;;;;;;26.04;32.69;94797.81;4972022;28;20136;-79
2021/05/06 08:40:41;;;;;;;4.93;1.52;;;;;;;25.97;32.84;94798.47;4976605;28;20015;-78
2021/05/06 08:43:08;;;;;;;4.60;1.33;;;;;;;25.99;32.19;94802.16;4981032;28;20030;-77
2021/05/06 08:45:41;;;;;;;6.22;2.28;;;;;;;25.95;32.56;94796.25;4978389;28;20018;-78
2021/05/06 08:48:06;;;;;;;3.22;1.25;;;;;;;25.90;32.66;94805.34;4973684;28;20030;-80
2021/05/06 08:50:32;;;;;;;3.40;1.23;;;;;;;25.88;32.78;94802.38;4986039;28;20113;-79
2021/05/06 08:52:57;;;;;;;2.08;1.20;;;;;;;26.04;32.32;94814.97;4980278;28;20030;-81
2021/05/06 08:55:24;;;;;;;4.07;1.30;;;;;;;26.17;32.73;94801.22;4976086;28;20477;-78
2021/05/06 08:57:50;;;;;;;4.88;1.75;;;;;;;26.16;31.98;94809.97;5001270;28;20033;-80
2021/05/06 09:00:16;;;;;;;4.38;2.00;;;;;;;26.16;31.76;94805.25;4991063;28;20038;-82
2021/05/06 09:02:47;;;;;;;4.75;1.95;;;;;;;26.31;32.13;94799.94;4999615;28;20391;-77
2021/05/06 09:05:13;;;;;;;4.85;1.63;;;;;;;26.25;32.04;94782.88;4985783;28;20021;-80
2021/05/06 09:07:42;;;;;;;5.35;1.30;;;;;;;26.31;31.98;94810.91;4988128;28;20022;-78
2021/05/06 09:10:08;;;;;;;3.80;1.45;;;;;;;26.21;32.10;94812.59;4979770;28;20194;-79
2021/05/06 09:12:38;;;;;;;2.83;1.00;;;;;;;26.28;31.02;94820.19;4984465;28;20739;-77
2021/05/06 09:15:15;;;;;;;2.08;1.08;;;;;;;26.26;30.92;94811.72;4982844;28;20054;-82
2021/05/06 09:17:41;;;;;;;3.28;1.40;;;;;;;26.20;31.10;94811.09;4999233;28;20494;-78
2021/05/06 09:20:17;;;;;;;2.25;1.00;;;;;;;26.12;30.29;94809.56;4979456;28;20081;-74
2021/05/06 09:22:52;;;;;;;3.75;1.02;;;;;;;26.22;30.92;94808.59;4992323;28;20033;-78
2021/05/06 09:25:31;;;;;;;3.83;1.27;;;;;;;25.99;30.55;94769.31;4980252;28;20506;-76
2021/05/06 09:28:08;;;;;;;5.03;1.35;;;;;;;26.30;30.42;94809.41;4993761;28;20153;-77
2021/05/06 09:30:53;;;;;;;3.78;1.30;;;;;;;26.52;30.83;94804.16;4993484;28;20501;-75
2021/05/06 09:33:30;;;;;;;3.28;1.20;;;;;;;26.51;30.20;94796.47;4975665;28;20038;-71
2021/05/06 09:35:56;;;;;;;2.97;1.17;;;;;;;26.66;30.23;94813.03;4988897;28;20010;-74
2021/05/06 09:38:23;;;;;;;3.03;1.08;;;;;;;26.78;30.76;94804.72;4994639;28;20037;-75
2021/05/06 09:40:48;;;;;;;1.80;1.13;;;;;;;26.89;30.67;94809.97;4997610;28;20017;-76
2021/05/06 09:43:31;;;;;;;2.28;1.10;;;;;;;27.05;30.91;94811.53;4990741;28;20026;-75
2021/05/06 09:45:58;;;;;;;2.22;1.13;;;;;;;27.01;31.13;94800.19;4998759;28;20033;-76
2021/05/06 09:48:23;;;;;;;4.32;1.05;;;;;;;27.01;31.68;94800.19;5005541;28;20037;-75
2021/05/06 09:50:59;;;;;;;3.30;1.05;;;;;;;27.15;31.59;94815.25;4995831;28;20029;-76
2021/05/06 09:53:26;;;;;;;1.60;0.90;;;;;;;27.43;30.95;94801.53;5005246;28;20061;-75
2021/05/06 09:55:55;;;;;;;5.38;1.02;;;;;;;27.37;31.62;94803.69;4983183;28;20452;-75
2021/05/06 09:58:26;;;;;;;2.15;1.00;;;;;;;27.06;31.59;94774.63;4989538;28;20046;-74
2021/05/06 10:00:51;;;;;;;3.75;1.08;;;;;;;27.45;31.54;94809.94;4990035;28;20057;-78
2021/05/06 10:03:22;;;;;;;1.42;0.90;;;;;;;27.33;31.74;94803.28;4985987;28;20395;-79
2021/05/06 10:05:48;;;;;;;2.80;1.00;;;;;;;27.45;31.52;94809.94;4992039;28;20018;-75
2021/05/06 10:08:14;;;;;;;1.88;1.00;;;;;;;27.41;31.40;94804.06;4984773;28;20065;-76
2021/05/06 10:10:41;;;;;;;1.77;0.90;;;;;;;27.55;31.08;94791.72;4978930;28;20058;-82
2021/05/06 10:13:09;;;;;;;2.47;0.98;;;;;;;27.77;30.86;94792.56;4984125;28;20034;-76
2021/05/06 10:15:35;;;;;;;1.70;0.88;;;;;;;27.84;31.12;94797.34;4980948;28;20045;-75
2021/05/06 10:18:00;;;;;;;2.75;0.90;;;;;;;27.74;30.99;94766.22;4984539;28;20026;-75
2021/05/06 10:20:26;;;;;;;2.42;0.90;;;;;;;27.91;30.86;94791.13;4979037;28;20039;-76
2021/05/06 10:22:53;;;;;;;1.50;0.85;;;;;;;27.94;30.60;94790.06;4983993;28;20038;-75
2021/05/06 10:25:20;;;;;;;3.53;1.20;;;;;;;28.00;30.45;94792.63;4981388;28;20026;-75
2021/05/06 10:27:45;;;;;;;1.85;0.98;;;;;;;27.84;30.57;94758.91;4984436;28;20018;-75
2021/05/06 10:30:11;;;;;;;1.92;0.90;;;;;;;28.14;30.15;94808.44;4980286;28;20560;-75
2021/05/06 10:32:36;;;;;;;3.25;0.88;;;;;;;28.24;30.18;94801.16;4985243;28;20026;-79
2021/05/06 10:35:07;;;;;;;2.03;0.90;;;;;;;28.37;29.30;94803.72;4978035;28;20030;-73
2021/05/06 10:37:43;;;;;;;2.67;0.82;;;;;;;28.47;28.23;94804.66;4986142;28;20027;-73
2021/05/06 10:40:20;;;;;;;2.58;1.00;;;;;;;28.41;28.65;94820.59;4978227;28;20030;-73
2021/05/06 10:42:46;;;;;;;1.92;1.00;;;;;;;28.44;27.37;94809.22;4984070;28;20118;-73
2021/05/06 10:45:12;;;;;;;2.65;1.00;;;;;;;28.40;28.73;94802.63;4981139;28;20557;-72
2021/05/06 10:47:45;;;;;;;4.18;1.00;;;;;;;28.46;29.01;94805.94;4985550;28;20417;-75
2021/05/06 10:50:14;;;;;;;3.80;0.85;;;;;;;28.56;28.55;94798.63;4983909;28;20026;-74
2021/05/06 10:53:03;;;;;;;2.50;0.90;;;;;;;28.58;28.40;94796.03;4985751;28;20053;-73
2021/05/06 10:55:41;;;;;;;1.40;0.80;;;;;;;28.61;28.31;94795.69;4984332;28;20034;-75
2021/05/06 10:58:31;;;;;;;1.73;0.80;;;;;;;28.60;28.49;94804.50;4983609;28;20049;-75
2021/05/06 11:01:03;;;;;;;1.95;0.85;;;;;;;28.67;27.77;94806.53;4947272;28;20038;-75
2021/05/06 11:03:30;;;;;;;1.70;0.75;;;;;;;28.68;27.31;94805.25;4982828;28;20054;-74
2021/05/06 11:05:57;;;;;;;1.77;0.68;;;;;;;28.75;27.25;94816.97;4997971;28;20027;-74
2021/05/06 11:08:22;;;;;;;3.17;0.80;;;;;;;28.71;28.26;94798.66;4979772;28;20069;-74
2021/05/06 11:10:49;;;;;;;1.80;0.77;;;;;;;28.72;27.86;94811.13;4982645;28;20494;-74
2021/05/06 11:13:15;;;;;;;4.60;1.48;;;;;;;28.86;27.34;94811.13;4982886;28;20515;-75
2021/05/06 11:15:41;;;;;;;1.80;0.80;;;;;;;28.80;28.11;94818.81;4981503;28;20026;-74
2021/05/06 11:18:10;;;;;;;3.03;0.90;;;;;;;28.78;27.53;94804.88;4983566;28;20034;-74
2021/05/06 11:20:36;;;;;;;2.72;1.00;;;;;;;28.84;27.80;94813.69;4981535;28;20402;-75
2021/05/06 11:23:02;;;;;;;2.45;0.77;;;;;;;28.90;27.99;94811.47;4983564;28;20030;-74
2021/05/06 11:27:59;;;;;;;4.10;0.90;;;;;;;28.68;27.75;94755.78;4984020;28;20073;-74
2021/05/06 11:30:42;;;;;;;3.05;1.00;;;;;;;29.00;27.62;94798.66;4978974;28;20057;-75
2021/05/06 11:33:24;;;;;;;2.85;0.82;;;;;;;29.03;28.08;94794.78;4987070;28;20038;-74
2021/05/06 11:36:14;;;;;;;3.33;1.00;;;;;;;29.10;28.07;94791.28;4985961;28;20499;-74
2021/05/06 11:38:42;;;;;;;2.35;1.10;;;;;;;29.05;27.61;94794.25;4984253;28;20038;-75
2021/05/06 11:41:07;;;;;;;3.92;1.60;;;;;;;29.07;27.99;94803.38;4985416;28;20133;-75
2021/05/06 11:43:34;;;;;;;4.72;2.30;;;;;;;29.12;27.59;94791.47;4988992;28;20128;-75
2021/05/06 11:46:16;;;;;;;4.32;2.00;;;;;;;29.18;27.08;94792.03;4987511;28;20502;-75
2021/05/06 11:48:46;;;;;;;2.90;1.40;;;;;;;29.19;27.26;94804.47;4986360;28;20026;-75
2021/05/06 11:51:23;;;;;;;3.13;1.67;;;;;;;29.23;27.29;94793.84;4987062;28;20062;-72
2021/05/06 11:54:09;;;;;;;4.28;1.88;;;;;;;29.27;27.33;94805.25;4988720;28;20037;-78
2021/05/06 11:56:35;;;;;;;2.30;1.10;;;;;;;29.30;27.16;94793.84;4988035;28;20030;-76
2021/05/06 11:59:02;;;;;;;3.40;1.45;;;;;;;29.24;27.21;94789.84;4984518;28;20041;-76
2021/05/06 12:01:28;;;;;;;1.73;0.98;;;;;;;28.75;26.92;94794.97;4984802;28;20030;-76
2021/05/06 12:03:54;;;;;;;3.33;1.23;;;;;;;28.68;26.63;94794.25;4984893;28;20430;-75
2021/05/06 12:06:35;;;;;;;2.40;1.38;;;;;;;28.74;27.46;94788.03;4975135;28;20046;-72
2021/05/06 12:09:05;;;;;;;2.38;1.08;;;;;;;29.03;26.91;94786.53;4974089;28;20030;-73
2021/05/06 12:11:40;;;;;;;3.13;1.10;;;;;;;29.10;26.95;94785.78;4973114;28;20418;-73
2021/05/06 12:14:09;;;;;;;2.88;0.85;;;;;;;29.20;27.33;94790.16;4979057;28;20505;-73
2021/05/06 12:16:36;;;;;;;2.70;0.90;;;;;;;29.17;27.34;94780.28;4979978;28;20026;-73
2021/05/06 12:19:12;;;;;;;3.17;0.85;;;;;;;29.24;26.98;94785.06;4976638;28;20046;-73
2021/05/06 12:21:46;;;;;;;3.60;1.13;;;;;;;29.29;27.37;94769.66;4971113;28;20029;-73
2021/05/06 12:24:14;;;;;;;2.85;0.88;;;;;;;29.37;26.99;94776.59;4972967;28;20073;-73
2021/05/06 12:26:40;;;;;;;3.47;1.13;;;;;;;29.32;26.47;94763.03;4974472;28;20042;-73
2021/05/06 12:29:06;;;;;;;2.17;0.70;;;;;;;29.44;27.42;94769.59;4988534;28;20030;-74
2021/05/06 12:31:44;;;;;;;3.28;0.65;;;;;;;29.40;27.17;94769.25;4979381;28;20089;-73
2021/05/06 12:34:17;;;;;;;2.25;0.80;;;;;;;29.52;26.56;94786.81;4976146;28;20038;-74
2021/05/06 12:36:54;;;;;;;2.00;1.08;;;;;;;29.55;26.75;94775.44;4978204;28;20074;-74
2021/05/06 12:39:20;;;;;;;1.60;0.95;;;;;;;29.45;27.36;94776.59;4977868;28;20495;-73
2021/05/06 12:41:50;;;;;;;1.92;1.00;;;;;;;29.55;26.99;94766.44;4984552;28;20100;-73
2021/05/06 12:44:34;;;;;;;2.53;0.88;;;;;;;29.46;27.42;94764.28;4974947;28;20030;-73
2021/05/06 12:47:39;;;;;;;3.72;0.80;;;;;;;29.43;27.50;94773.63;4974055;28;20034;-73
2021/05/06 12:50:13;;;;;;;1.40;0.70;;;;;;;29.46;26.61;94772.53;4967974;28;20434;-73
2021/05/06 12:52:39;;;;;;;1.55;0.90;;;;;;;29.35;27.24;94742.66;4986094;28;20036;-73
2021/05/06 12:55:15;;;;;;;1.92;0.98;;;;;;;29.34;26.64;94738.44;4994354;28;20081;-75
2021/05/06 12:57:40;;;;;;;1.55;0.70;;;;;;;29.50;26.90;94761.88;4968796;28;20046;-76
2021/05/06 13:00:20;;;;;;;1.60;0.80;;;;;;;29.57;26.58;94763.88;4974953;28;20045;-77
2021/05/06 13:02:45;;;;;;;1.50;0.70;;;;;;;29.59;27.29;94775.06;4970484;28;20026;-77
2021/05/06 13:05:12;;;;;;;1.98;0.80;;;;;;;29.57;27.18;94772.16;4973095;28;20034;-77
2021/05/06 13:07:50;;;;;;;1.98;0.95;;;;;;;29.67;27.09;94777.22;4970034;28;20175;-74
2021/05/06 13:10:28;;;;;;;2.10;0.93;;;;;;;29.64;27.23;94771.38;4973711;28;20092;-74
2021/05/06 13:12:53;;;;;;;1.42;0.80;;;;;;;29.64;27.20;94771.38;4971618;28;20030;-75
2021/05/06 13:15:19;;;;;;;2.33;0.80;;;;;;;29.64;26.53;94765.84;4989826;28;20413;-75
2021/05/06 13:17:44;;;;;;;1.42;0.70;;;;;;;29.70;26.50;94759.59;4974460;28;20022;-78
2021/05/06 13:20:17;;;;;;;1.17;0.70;;;;;;;29.75;26.52;94755.19;4985327;28;20034;-75
2021/05/06 13:23:02;;;;;;;2.35;0.68;;;;;;;29.76;26.53;94751.88;4976601;28;20030;-79
2021/05/06 13:25:44;;;;;;;3.15;0.90;;;;;;;29.69;27.06;94763.63;4973714;28;20035;-80
2021/05/06 13:28:34;;;;;;;1.00;0.60;;;;;;;29.73;27.02;94747.47;4972881;28;20022;-77
2021/05/06 13:31:06;;;;;;;1.35;0.70;;;;;;;29.73;27.09;94741.97;4987528;28;20061;-73
2021/05/06 13:33:31;;;;;;;1.95;0.90;;;;;;;29.70;26.80;94748.59;4971140;28;20043;-74
2021/05/06 13:36:03;;;;;;;1.30;0.68;;;;;;;29.70;27.17;94737.56;4975525;28;20442;-74
2021/05/06 13:39:00;;;;;;;2.28;1.20;;;;;;;29.76;27.20;94746.34;4973469;28;20495;-74
2021/05/06 13:41:30;;;;;;;2.53;0.80;;;;;;;29.65;26.59;94739.81;4974224;28;20057;-74
2021/05/06 13:43:56;;;;;;;2.70;0.60;;;;;;;29.69;27.07;94741.59;4972052;28;20984;-73
2021/05/06 13:46:23;;;;;;;2.40;0.88;;;;;;;29.65;26.73;94734.28;4971815;28;20027;-74
2021/05/06 13:48:48;;;;;;;2.25;0.70;;;;;;;29.34;26.64;94683.41;4975803;28;20076;-73
2021/05/06 13:51:14;;;;;;;2.85;0.55;;;;;;;29.75;27.03;94728.38;4991611;28;20565;-74
2021/05/06 13:53:41;;;;;;;2.17;0.65;;;;;;;29.79;26.96;94723.25;4995580;28;20076;-73
2021/05/06 13:56:06;;;;;;;4.18;1.00;;;;;;;29.84;26.10;94725.03;4978569;28;20023;-73
2021/05/06 13:58:32;;;;;;;1.83;0.80;;;;;;;29.81;26.60;94728.91;4984941;28;20600;-73
2021/05/06 14:00:58;;;;;;;1.23;0.77;;;;;;;29.81;26.44;94731.66;4983818;28;20053;-72
2021/05/06 14:03:23;;;;;;;3.40;0.77;;;;;;;29.72;25.69;94723.97;4985371;28;20050;-71
2021/05/06 14:05:49;;;;;;;1.50;0.73;;;;;;;29.66;26.58;94713.75;4983058;28;20486;-72
2021/05/06 14:08:15;;;;;;;1.10;0.60;;;;;;;29.73;26.64;94719.94;4982576;28;20023;-72
2021/05/06 14:10:41;;;;;;;1.25;0.60;;;;;;;29.79;26.72;94712.22;4979352;28;20040;-74
2021/05/06 14:13:07;;;;;;;3.00;0.70;;;;;;;29.62;26.06;94692.09;4980785;28;20030;-74
2021/05/06 14:15:33;;;;;;;1.27;0.65;;;;;;;29.96;26.45;94731.59;4977422;28;20027;-73
2021/05/06 14:17:58;;;;;;;2.15;0.40;;;;;;;29.87;25.72;94729.44;4999513;28;20667;-74
2021/05/06 14:20:24;;;;;;;2.45;0.60;;;;;;;29.56;24.41;94726.63;4976355;28;20394;-76
2021/05/06 14:22:50;;;;;;;1.80;0.70;;;;;;;29.50;24.87;94717.84;5003715;28;20017;-76
2021/05/06 14:25:16;;;;;;;1.95;0.60;;;;;;;29.54;25.57;94707.19;4987509;28;20034;-74
2021/05/06 14:27:41;;;;;;;3.40;0.93;;;;;;;29.54;25.46;94712.69;4972385;28;20030;-74
2021/05/06 14:30:07;;;;;;;2.92;0.70;;;;;;;29.38;24.25;94722.28;4976898;28;20089;-74
2021/05/06 14:32:33;;;;;;;1.50;0.68;;;;;;;29.34;24.01;94728.19;4998830;28;20037;-72
2021/05/06 14:34:58;;;;;;;2.05;0.65;;;;;;;29.37;23.99;94715.31;4985089;28;20026;-73
2021/05/06 14:37:24;;;;;;;2.10;0.80;;;;;;;29.49;24.32;94716.38;4996179;28;20509;-73
2021/05/06 14:39:49;;;;;;;1.70;0.60;;;;;;;29.44;23.77;94703.56;4984023;28;20026;-72
2021/05/06 14:42:15;;;;;;;1.92;0.63;;;;;;;29.42;23.86;94711.66;4991898;28;20504;-73
2021/05/06 14:44:40;;;;;;;4.13;0.65;;;;;;;29.50;22.90;94712.34;4984571;28;20035;-73
2021/05/06 14:47:05;;;;;;;2.92;0.50;;;;;;;29.48;23.27;94704.66;4990975;28;20032;-71
2021/05/06 14:49:31;;;;;;;2.75;0.70;;;;;;;29.34;22.83;94705.44;4986327;28;20030;-73
2021/05/06 14:51:56;;;;;;;2.78;0.60;;;;;;;29.19;22.50;94705.44;4998958;28;20096;-73
2021/05/06 14:54:22;;;;;;;2.38;0.50;;;;;;;29.28;23.17;94702.16;4995154;28;20069;-72
2021/05/06 14:56:47;;;;;;;2.20;0.40;;;;;;;29.26;22.93;94699.22;4996291;28;20025;-72
2021/05/06 14:59:13;;;;;;;1.10;0.52;;;;;;;29.23;22.65;94678.31;4982198;28;20030;-77
2021/05/06 15:01:38;;;;;;;2.13;0.50;;;;;;;29.28;22.82;94697.41;4993505;28;20082;-72
2021/05/06 15:04:04;;;;;;;1.45;0.50;;;;;;;29.31;22.80;94690.78;4985557;28;20054;-73
2021/05/06 15:06:29;;;;;;;1.33;0.73;;;;;;;29.25;23.18;94692.25;4989745;28;20026;-72
2021/05/06 15:08:55;;;;;;;1.42;0.50;;;;;;;29.28;23.04;94694.63;4983492;28;20148;-73
2021/05/06 15:11:20;;;;;;;1.77;0.70;;;;;;;29.15;22.62;94702.38;4978598;28;20046;-72
2021/05/06 15:13:46;;;;;;;2.47;0.90;;;;;;;29.15;23.14;94702.38;4985633;28;20030;-73
2021/05/06 15:16:12;;;;;;;1.67;0.82;;;;;;;28.97;23.13;94700.75;4977469;28;20034;-73
2021/05/06 15:18:37;;;;;;;3.92;0.70;;;;;;;28.99;22.23;94695.44;4986919;28;20026;-73
2021/05/06 15:21:03;;;;;;;1.58;0.63;;;;;;;28.72;22.80;94691.63;4974823;28;20026;-73